Oakdale, NY (11769)

12:08 PM EDT on June 02, 2015 (GMT -0400)
Idle Hour | | Change Station
CLOSE
Current Station
Personal Weather Station
Location: Oakdale, NY
Elevation: 3 ft
Nearby Weather Stations

Elev 3 ft 40.73 °N, 73.14 °W | Updated 14 minutes ago

Rain
Rain
52.0 °F
Feels Like 52.0 °F
N
4.7
Wind Variable Wind from NE

Today
High -- | Low -- °F
--% Chance of Precip.
Yesterday
High -- | Low -- °F
Precip. -- in
5:23 AM 8:18 PM
Full, 100% visible
Pressure 30.12 in
Visibility 8.0 miles
Clouds Mostly Cloudy 800 ft
Overcast 1300 ft
Dew Point 52 °F
Humidity 99%
Rainfall 0.18 in
Snow Depth Not available.
UV 3 out of 12
Pollen .50 out of 12
Air Quality Not available.
Flu Activity Sporadic
METAR KISP 021556Z 02010KT 8SM -RA BKN008 OVC013 11/09 A3012 RMK AO2 DZE11RAB35 SLP200 P0000 T01110094

More Conditions Fewer Conditions

Pressure 30.12 in
Visibility 8.0 miles
Clouds Mostly Cloudy 800 ft
Overcast 1300 ft
Dew Point 52 °F
Humidity 99%
Rainfall 0.18 in
Snow Depth Not available.
UV 3 out of 12
Pollen .50 out of 12
Air Quality Not available.
Flu Activity Sporadic
METAR KISP 021556Z 02010KT 8SM -RA BKN008 OVC013 11/09 A3012 RMK AO2 DZE11RAB35 SLP200 P0000 T01110094

More Conditions Fewer Conditions

10-Day Weather Forecast

Almanac

Astronomy

Jun. 02, 2015 Rise Set
Actual Time
Civil Twilight
Nautical Twilight
Astronomical Twilight
Moon
Length of Visible Light
Length of Day
Tomorrow will be .
, % of the Moon is Illuminated

Today's Extremes

State Highs State Lows

Community

WunderPhotos

Upload Photos

1,825,972 photos uploaded!

WunderBlogs® & News

Nearby

Air Quality

  Air Quality AQ Index Pollutant
Not available.

Snow Depth

Station Depth Elevation

Earthquake Activity

City Distance Mag. Time & Date
Minimum magnitude displayed is 2.5.

Coastal Water Temperatures

Place Temperature

Stations

Nearby Weather Stations

Station Location Temp. Windchill Dew Point Humidity Wind Precip. Elev Updated Type